createdAt,value
2022-09-06T00:01:19.741Z,100878.88
2022-09-06T00:03:47.026Z,100881.31
2022-09-06T00:06:16.856Z,100879.66
2022-09-06T00:08:45.097Z,100871.41
2022-09-06T00:11:15.217Z,100856.75
2022-09-06T00:13:42.817Z,100862.06
2022-09-06T00:16:12.397Z,100855.53
2022-09-06T00:18:40.186Z,100868.44
2022-09-06T00:21:15.537Z,100863.09
2022-09-06T00:23:42.890Z,100866.09
2022-09-06T00:26:10.810Z,100866.91
2022-09-06T00:28:40.085Z,100871.38
2022-09-06T00:31:11.896Z,100869.31
2022-09-06T00:33:39.641Z,100867.00
2022-09-06T00:36:07.348Z,100859.13
2022-09-06T00:38:35.245Z,100859.00
2022-09-06T00:41:03.449Z,100854.53
2022-09-06T00:43:30.832Z,100854.13
2022-09-06T00:46:01.635Z,100854.28
2022-09-06T00:48:29.431Z,100858.50
2022-09-06T00:51:01.145Z,100870.03
2022-09-06T00:53:28.768Z,100854.53
2022-09-06T00:55:56.578Z,100863.09
2022-09-06T00:58:25.194Z,100869.91
2022-09-06T01:00:52.964Z,100870.66
2022-09-06T01:03:22.789Z,100870.22
2022-09-06T01:06:00.677Z,100866.22
2022-09-06T01:08:51.166Z,100858.25
2022-09-06T01:11:44.083Z,100864.03
2022-09-06T01:14:19.684Z,100862.72
2022-09-06T01:16:56.669Z,100860.03
2022-09-06T01:19:54.223Z,100856.28
2022-09-06T01:22:43.808Z,100856.00
2022-09-06T01:25:30.525Z,100857.97
2022-09-06T01:28:23.161Z,100867.41
2022-09-06T01:30:57.951Z,100873.53
2022-09-06T01:33:30.827Z,100856.66
2022-09-06T01:36:02.784Z,100865.47
2022-09-06T01:38:30.374Z,100866.03
2022-09-06T01:43:48.428Z,100856.09
2022-09-06T01:46:23.493Z,100856.84
2022-09-06T01:49:08.644Z,100857.50
2022-09-06T04:29:15.212Z,100788.78
2022-09-06T04:31:42.977Z,100795.00
2022-09-06T04:34:10.351Z,100793.22
2022-09-06T04:36:37.581Z,100796.09
2022-09-06T04:39:05.404Z,100801.28
2022-09-06T04:41:32.917Z,100810.31
2022-09-06T04:44:00.177Z,100808.75
2022-09-06T04:46:30.665Z,100820.59
2022-09-06T04:48:58.442Z,100806.34
2022-09-06T04:51:26.243Z,100811.13
2022-09-06T04:53:54.319Z,100808.66
2022-09-06T04:56:23.202Z,100810.84
2022-09-06T04:58:51.600Z,100807.00
2022-09-06T05:01:19.291Z,100808.19
2022-09-06T05:03:48.438Z,100813.19
2022-09-06T05:06:20.369Z,100805.53
2022-09-06T05:08:47.741Z,100805.75
2022-09-06T05:11:15.784Z,100815.28
2022-09-06T05:13:43.098Z,100819.28
2022-09-06T05:16:11.129Z,100826.88
2022-09-06T05:18:38.449Z,100826.66
2022-09-06T05:21:07.703Z,100821.97
2022-09-06T05:23:35.329Z,100822.66
2022-09-06T05:26:02.805Z,100827.78
2022-09-06T05:28:30.111Z,100839.31
2022-09-06T05:31:06.458Z,100842.75
2022-09-06T05:33:34.120Z,100846.50
2022-09-06T05:36:02.329Z,100847.19
2022-09-06T05:38:31.231Z,100850.44
2022-09-06T05:40:58.753Z,100853.25
2022-09-06T05:43:26.276Z,100846.22
2022-09-06T05:45:53.588Z,100848.28
2022-09-06T05:48:21.531Z,100852.03
2022-09-06T05:50:59.897Z,100846.16
2022-09-06T05:53:27.198Z,100843.72
2022-09-06T05:55:56.388Z,100840.81
2022-09-06T05:58:23.751Z,100840.91
2022-09-06T06:00:51.101Z,100836.53
2022-09-06T06:03:18.906Z,100831.97
2022-09-06T06:05:47.044Z,100830.84
2022-09-06T06:08:14.250Z,100828.41
2022-09-06T06:10:41.949Z,100826.47
2022-09-06T06:13:10.710Z,100839.53
2022-09-06T06:15:37.947Z,100835.41
2022-09-06T06:18:06.021Z,100835.78
2022-09-06T06:20:33.262Z,100835.66
2022-09-06T06:23:00.501Z,100826.81
2022-09-06T06:25:28.327Z,100834.03
2022-09-06T06:27:55.507Z,100828.41
2022-09-06T06:30:24.236Z,100835.16
2022-09-06T06:32:51.761Z,100834.78
2022-09-06T06:35:19.050Z,100834.47
2022-09-06T06:37:46.317Z,100824.16
2022-09-06T06:40:14.078Z,100833.78
2022-09-06T06:42:41.338Z,100821.16
2022-09-06T06:45:09.295Z,100820.41
2022-09-06T06:47:38.226Z,100816.09
2022-09-06T06:50:06.524Z,100820.22
2022-09-06T06:52:33.807Z,100823.41
2022-09-06T06:55:01.569Z,100832.09
2022-09-06T06:57:28.867Z,100830.47
2022-09-06T06:59:56.129Z,100823.84
2022-09-06T07:02:23.820Z,100835.44
2022-09-06T07:04:52.626Z,100832.09
2022-09-06T07:07:37.861Z,100835.84
2022-09-06T07:12:55.088Z,100824.56
2022-09-06T07:15:22.904Z,100838.56
2022-09-06T07:17:50.466Z,100837.09
2022-09-06T07:20:19.172Z,100842.03
2022-09-06T07:22:47.392Z,100843.97
2022-09-06T07:25:19.059Z,100839.59
2022-09-06T07:27:49.777Z,100834.75
2022-09-06T07:30:18.673Z,100836.25
2022-09-06T07:32:45.870Z,100838.56
2022-09-06T07:35:14.210Z,100842.41
2022-09-06T07:37:42.996Z,100844.63
2022-09-06T07:40:11.467Z,100847.69
2022-09-06T07:42:39.371Z,100845.44
2022-09-06T07:45:07.459Z,100849.25
2022-09-06T07:53:15.120Z,100852.28
2022-09-06T07:55:43.587Z,100855.63
2022-09-06T07:58:10.909Z,100853.13
2022-09-06T08:00:38.230Z,100854.81
2022-09-06T08:03:05.917Z,100842.91
2022-09-06T08:11:10.377Z,100819.94
2022-09-06T08:13:38.623Z,100824.00
2022-09-06T08:16:08.185Z,100829.19
2022-09-06T08:18:36.816Z,100831.94
2022-09-06T08:21:12.405Z,100833.34
2022-09-06T08:23:45.577Z,100830.00
2022-09-06T08:26:14.712Z,100816.78
2022-09-06T08:28:42.553Z,100814.00
2022-09-06T08:31:11.843Z,100818.47
2022-09-06T08:33:40.338Z,100813.66
2022-09-06T08:36:08.980Z,100822.72
2022-09-06T08:38:36.762Z,100820.13
2022-09-06T08:41:12.041Z,100822.41
2022-09-06T08:43:40.194Z,100828.69
2022-09-06T08:46:09.493Z,100819.44
2022-09-06T08:48:37.684Z,100821.63
2022-09-06T08:51:27.988Z,100817.25
2022-09-06T08:54:03.966Z,100817.13
2022-09-06T08:56:38.632Z,100812.88
2022-09-06T08:59:07.698Z,100812.19
2022-09-06T09:01:46.122Z,100812.69
2022-09-06T09:04:18.655Z,100813.47
2022-09-06T09:06:50.727Z,100807.13
2022-09-06T09:09:18.865Z,100821.81
2022-09-06T09:11:50.489Z,100828.28
2022-09-06T09:14:21.291Z,100822.63
2022-09-06T09:16:50.883Z,100816.94
2022-09-06T09:19:18.233Z,100818.19
2022-09-06T09:21:45.933Z,100829.81
2022-09-06T09:24:15.299Z,100826.47
2022-09-06T09:26:50.944Z,100826.25
2022-09-06T09:29:22.725Z,100824.66
2022-09-06T09:31:54.476Z,100830.06
2022-09-06T09:34:30.722Z,100823.63
2022-09-06T09:40:13.075Z,100821.78
2022-09-06T09:42:42.359Z,100815.34
2022-09-06T09:45:25.933Z,100804.28
2022-09-06T09:47:53.474Z,100797.34
2022-09-06T09:50:27.694Z,100802.94
2022-09-06T09:52:55.343Z,100802.53
2022-09-06T09:55:25.172Z,100798.13
2022-09-06T09:57:54.686Z,100796.50
2022-09-06T10:00:36.598Z,100786.44
2022-09-06T10:03:13.051Z,100779.31
2022-09-06T10:05:41.347Z,100770.72
2022-09-06T10:08:13.106Z,100753.56
2022-09-06T10:10:42.552Z,100752.91
2022-09-06T10:13:19.031Z,100749.81
2022-09-06T10:15:47.448Z,100745.41
2022-09-06T10:18:28.486Z,100745.16
2022-09-06T10:20:59.293Z,100749.31
2022-09-06T10:26:33.400Z,100743.06
2022-09-06T10:29:05.087Z,100749.69
2022-09-06T10:31:43.992Z,100745.47
2022-09-06T10:34:56.138Z,100736.44
2022-09-06T10:37:42.117Z,100737.66
2022-09-06T10:40:11.590Z,100729.63
2022-09-06T10:42:46.206Z,100736.13
2022-09-06T10:45:28.404Z,100728.50
2022-09-06T10:47:58.758Z,100730.19
2022-09-06T10:50:33.728Z,100736.53
2022-09-06T10:53:09.186Z,100742.22
2022-09-06T10:55:39.929Z,100736.56
2022-09-06T10:58:19.669Z,100739.84
2022-09-06T11:00:52.801Z,100749.00
2022-09-06T11:06:17.319Z,100739.75
2022-09-06T11:08:58.042Z,100742.81
2022-09-06T11:11:33.224Z,100729.94
2022-09-06T11:14:05.754Z,100740.88
2022-09-06T11:16:41.014Z,100725.97
2022-09-06T11:19:12.692Z,100723.63
2022-09-06T11:22:16.970Z,100730.16
2022-09-06T11:25:08.678Z,100734.31
2022-09-06T11:27:40.054Z,100729.03
2022-09-06T11:30:14.567Z,100731.00
2022-09-06T11:32:46.350Z,100726.13
2022-09-06T11:35:22.749Z,100721.13
2022-09-06T11:37:59.418Z,100713.03
2022-09-06T11:40:30.040Z,100712.31
2022-09-06T11:43:13.324Z,100714.22
2022-09-06T11:45:44.423Z,100708.81
2022-09-06T11:48:48.479Z,100710.59
2022-09-06T11:51:32.334Z,100702.06
2022-09-06T11:54:06.061Z,100705.19
2022-09-06T11:56:40.767Z,100708.28
2022-09-06T11:59:26.865Z,100712.78
2022-09-06T12:02:04.744Z,100701.94
2022-09-06T12:05:24.715Z,100702.72
2022-09-06T12:08:23.306Z,100701.38
2022-09-06T12:10:57.551Z,100702.16
2022-09-06T12:14:07.908Z,100701.22
2022-09-06T12:17:27.093Z,100697.03
2022-09-06T12:19:57.038Z,100698.03
2022-09-06T12:23:00.913Z,100703.50
2022-09-06T12:25:53.874Z,100684.34
2022-09-06T12:28:31.803Z,100695.72
2022-09-06T12:30:59.667Z,100698.00
2022-09-06T12:33:31.439Z,100694.19
2022-09-06T12:36:14.673Z,100693.59
2022-09-06T12:38:54.316Z,100693.69
2022-09-06T12:41:23.853Z,100686.56
2022-09-06T12:43:52.382Z,100675.28
2022-09-06T12:46:19.910Z,100671.50
2022-09-06T12:49:01.021Z,100670.81
2022-09-06T12:51:28.913Z,100668.38
2022-09-06T12:53:58.915Z,100659.38
2022-09-06T12:56:29.623Z,100651.78
2022-09-06T12:59:15.125Z,100640.44
2022-09-06T13:01:49.659Z,100645.50
2022-09-06T13:04:27.121Z,100630.16
2022-09-06T13:06:59.135Z,100636.59
2022-09-06T13:09:28.404Z,100633.06
2022-09-06T13:12:05.388Z,100627.22
2022-09-06T13:14:34.033Z,100633.06
2022-09-06T13:17:01.665Z,100625.97
2022-09-06T13:19:32.614Z,100610.47
2022-09-06T13:22:01.126Z,100615.03
2022-09-06T13:24:46.874Z,100622.81
2022-09-06T13:27:33.064Z,100605.38
2022-09-06T13:30:02.184Z,100610.13
2022-09-06T13:32:30.380Z,100605.31
2022-09-06T13:34:59.212Z,100596.47
2022-09-06T13:37:28.824Z,100588.56
2022-09-06T13:39:56.531Z,100595.38
2022-09-06T13:42:30.656Z,100593.13
2022-09-06T13:45:01.912Z,100592.88
2022-09-06T13:47:30.333Z,100599.09
2022-09-06T13:49:57.635Z,100597.53
2022-09-06T13:52:25.226Z,100599.78
2022-09-06T13:54:52.604Z,100599.97
2022-09-06T13:57:24.173Z,100599.81
2022-09-06T13:59:53.686Z,100589.44
2022-09-06T14:02:21.082Z,100591.09
2022-09-06T14:04:48.461Z,100594.09
2022-09-06T14:07:16.217Z,100580.06
2022-09-06T14:09:43.556Z,100572.31
2022-09-06T14:12:11.223Z,100578.31
2022-09-06T14:14:39.169Z,100573.91
2022-09-06T14:17:08.243Z,100576.38
2022-09-06T14:19:35.799Z,100568.03
2022-09-06T14:22:03.464Z,100571.00
2022-09-06T14:24:30.996Z,100577.56
2022-09-06T14:26:58.351Z,100565.78
2022-09-06T14:29:26.091Z,100574.78
2022-09-06T14:31:53.406Z,100566.50
2022-09-06T14:34:22.503Z,100555.69
2022-09-06T14:36:50.526Z,100556.53
2022-09-06T14:39:17.920Z,100559.41
2022-09-06T14:41:45.268Z,100560.66
2022-09-06T14:44:13.169Z,100564.00
2022-09-06T14:46:40.662Z,100562.75
2022-09-06T14:49:09.850Z,100557.28
2022-09-06T14:51:39.072Z,100552.72
2022-09-06T14:54:08.912Z,100556.69
2022-09-06T14:56:37.479Z,100556.91
2022-09-06T14:59:05.328Z,100557.38
2022-09-06T15:01:38.101Z,100557.53
2022-09-06T15:04:08.893Z,100561.44
2022-09-06T15:06:41.466Z,100550.78
2022-09-06T15:09:09.118Z,100545.06
2022-09-06T15:11:39.210Z,100558.44
2022-09-06T15:14:09.127Z,100553.22
2022-09-06T15:16:36.820Z,100560.75
2022-09-06T15:19:04.454Z,100557.16
2022-09-06T15:21:32.737Z,100548.47
2022-09-06T15:24:02.593Z,100546.22
2022-09-06T15:26:30.616Z,100546.91
2022-09-06T15:28:58.436Z,100531.50
2022-09-06T15:31:26.751Z,100532.69
2022-09-06T15:33:54.419Z,100527.53
2022-09-06T15:36:21.974Z,100520.53
2022-09-06T15:38:51.199Z,100523.28
2022-09-06T15:41:21.689Z,100526.28
2022-09-06T15:43:51.395Z,100525.19
2022-09-06T15:46:21.214Z,100524.31
2022-09-06T15:48:50.606Z,100527.88
2022-09-06T15:51:19.617Z,100526.66
2022-09-06T15:53:47.959Z,100528.72
2022-09-06T15:56:17.282Z,100530.25
2022-09-06T15:58:46.834Z,100524.41
2022-09-06T16:01:17.176Z,100522.75
2022-09-06T16:03:49.439Z,100519.78
2022-09-06T16:08:55.967Z,100507.50
2022-09-06T16:11:23.512Z,100503.38
2022-09-06T16:13:52.542Z,100502.06
2022-09-06T16:16:20.054Z,100494.75
2022-09-06T16:18:47.950Z,100496.19
2022-09-06T16:21:18.423Z,100501.31
2022-09-06T16:23:49.487Z,100496.69
2022-09-06T16:26:21.338Z,100493.34
2022-09-06T16:28:50.366Z,100489.88
2022-09-06T16:31:20.549Z,100484.31
2022-09-06T16:33:48.105Z,100480.97
2022-09-06T16:36:15.528Z,100472.50
2022-09-06T16:38:44.102Z,100477.59
2022-09-06T16:41:13.859Z,100477.53
2022-09-06T16:43:42.191Z,100476.63
2022-09-06T16:46:10.078Z,100466.31
2022-09-06T16:48:39.097Z,100464.72
2022-09-06T16:51:14.736Z,100467.63
2022-09-06T16:53:45.209Z,100470.28
2022-09-06T16:56:14.834Z,100473.25
2022-09-06T16:58:43.064Z,100477.25
2022-09-06T17:01:10.850Z,100471.56
2022-09-06T17:03:39.790Z,100478.00
2022-09-06T17:06:08.814Z,100472.56
2022-09-06T17:08:37.246Z,100468.63
2022-09-06T17:11:06.734Z,100468.00
2022-09-06T17:13:34.516Z,100474.53
2022-09-06T17:16:02.278Z,100476.34
2022-09-06T17:18:29.875Z,100482.03
2022-09-06T17:21:01.078Z,100485.22
2022-09-06T17:23:28.417Z,100484.53
2022-09-06T17:25:55.824Z,100480.97
2022-09-06T17:28:24.276Z,100484.16
2022-09-06T17:30:52.003Z,100481.34
2022-09-06T17:33:19.927Z,100478.00
2022-09-06T17:35:48.436Z,100477.31
2022-09-06T17:38:17.489Z,100483.53
2022-09-06T17:40:44.850Z,100482.41
2022-09-06T17:43:12.586Z,100473.19
2022-09-06T17:45:41.480Z,100476.22
2022-09-06T17:48:09.212Z,100484.47
2022-09-06T17:50:37.023Z,100487.31
2022-09-06T17:53:04.296Z,100490.91
2022-09-06T17:55:33.267Z,100496.59
2022-09-06T17:58:00.806Z,100496.78
2022-09-06T18:00:28.120Z,100498.59
2022-09-06T18:02:55.721Z,100509.22
2022-09-06T18:05:23.515Z,100510.75
2022-09-06T18:07:50.922Z,100507.34
2022-09-06T18:10:18.191Z,100497.63
2022-09-06T18:12:47.398Z,100506.22
2022-09-06T18:15:14.916Z,100501.28
2022-09-06T18:17:42.193Z,100491.25
2022-09-06T18:20:10.554Z,100486.22
2022-09-06T18:22:38.282Z,100483.56
2022-09-06T18:25:06.519Z,100488.63
2022-09-06T18:27:34.392Z,100488.31
2022-09-06T18:30:03.439Z,100498.78
2022-09-06T18:32:32.456Z,100501.28
2022-09-06T18:35:00.177Z,100496.81
2022-09-06T18:37:27.492Z,100494.47
2022-09-06T18:39:54.881Z,100491.53
2022-09-06T18:42:22.866Z,100500.00
2022-09-06T18:44:50.661Z,100499.03
2022-09-06T18:47:19.725Z,100499.31
2022-09-06T18:49:47.918Z,100489.69
2022-09-06T18:52:15.367Z,100499.31
2022-09-06T18:54:42.680Z,100490.31
2022-09-06T18:57:10.379Z,100493.06
2022-09-06T18:59:38.196Z,100492.03
2022-09-06T19:02:05.862Z,100495.59
2022-09-06T19:04:35.343Z,100497.47
2022-09-06T19:07:03.226Z,100495.38
2022-09-06T19:09:30.687Z,100493.88
2022-09-06T19:11:58.778Z,100497.88
2022-09-06T19:14:26.485Z,100493.94
2022-09-06T19:16:54.034Z,100496.16
2022-09-06T19:19:22.539Z,100502.03
2022-09-06T19:21:51.424Z,100499.56
2022-09-06T19:24:20.299Z,100502.28
2022-09-06T19:26:48.619Z,100497.09
2022-09-06T19:30:48.627Z,100487.63
2022-09-06T19:33:16.292Z,100488.47
2022-09-06T19:36:00.930Z,100483.06
2022-09-06T19:38:52.660Z,100482.81
2022-09-06T19:41:19.346Z,100471.78
2022-09-06T19:43:50.330Z,100478.91
2022-09-06T19:46:20.021Z,100471.59
2022-09-06T19:48:49.373Z,100467.63
2022-09-06T19:51:17.904Z,100467.19
2022-09-06T19:53:48.727Z,100468.69
2022-09-06T19:56:18.366Z,100465.53
2022-09-06T19:58:45.875Z,100463.06
2022-09-06T20:01:14.904Z,100457.63
2022-09-06T20:03:44.855Z,100457.41
2022-09-06T20:06:12.229Z,100451.56
2022-09-06T20:08:40.457Z,100449.44
2022-09-06T20:11:10.651Z,100459.31
2022-09-06T20:13:39.133Z,100461.59
2022-09-06T20:16:08.327Z,100449.88
2022-09-06T20:18:36.516Z,100447.16
2022-09-06T20:21:06.216Z,100453.63
2022-09-06T20:23:34.831Z,100446.94
2022-09-06T20:26:06.333Z,100444.84
2022-09-06T20:28:34.499Z,100446.28
2022-09-06T20:31:03.926Z,100442.56
2022-09-06T20:33:32.596Z,100436.50
2022-09-06T20:36:01.721Z,100443.78
2022-09-06T20:38:31.244Z,100442.09
2022-09-06T20:41:04.481Z,100441.81
2022-09-06T20:43:33.388Z,100436.19
2022-09-06T20:46:01.438Z,100441.03
2022-09-06T20:48:30.661Z,100438.06
2022-09-06T20:50:59.914Z,100434.13
2022-09-06T20:53:28.365Z,100435.78
2022-09-06T20:55:58.788Z,100437.09
2022-09-06T20:58:26.571Z,100446.06
2022-09-06T21:00:54.989Z,100443.34
2022-09-06T21:03:22.699Z,100442.28
2022-09-06T21:05:52.444Z,100448.13
2022-09-06T21:08:20.239Z,100441.47
2022-09-06T21:10:47.665Z,100442.09
2022-09-06T21:13:16.621Z,100436.41
2022-09-06T21:15:47.582Z,100432.44
2022-09-06T21:18:15.227Z,100429.53
2022-09-06T21:20:42.585Z,100434.97
2022-09-06T21:23:10.295Z,100435.16
2022-09-06T21:25:37.630Z,100438.91
2022-09-06T21:28:04.861Z,100440.97
2022-09-06T21:30:34.127Z,100434.53
2022-09-06T21:33:01.402Z,100434.38
2022-09-06T21:35:28.636Z,100435.63
2022-09-06T21:37:56.218Z,100438.94
2022-09-06T21:40:23.470Z,100434.78
2022-09-06T21:42:51.117Z,100435.81
2022-09-06T21:45:18.671Z,100429.97
2022-09-06T21:47:47.320Z,100427.84
2022-09-06T21:50:14.819Z,100419.72
2022-09-06T21:52:42.344Z,100421.94
2022-09-06T21:55:13.558Z,100426.13
2022-09-06T22:00:27.747Z,100423.56
2022-09-06T22:03:15.024Z,100420.19
2022-09-06T22:05:42.474Z,100416.41
2022-09-06T22:08:09.844Z,100415.78
2022-09-06T22:10:37.126Z,100419.06
2022-09-06T22:13:05.010Z,100420.69
2022-09-06T22:15:33.235Z,100425.75
2022-09-06T22:18:00.506Z,100415.53
2022-09-06T22:20:29.577Z,100415.75
2022-09-06T22:22:56.916Z,100415.78
2022-09-06T22:25:24.243Z,100412.19
2022-09-06T22:27:51.744Z,100414.63
2022-09-06T22:30:21.629Z,100409.38
2022-09-06T22:32:55.898Z,100414.91
2022-09-06T22:35:23.259Z,100412.03
2022-09-06T22:37:52.274Z,100409.28
2022-09-06T22:40:19.654Z,100405.28
2022-09-06T22:42:46.987Z,100404.22
2022-09-06T22:45:14.347Z,100400.47
2022-09-06T22:47:41.800Z,100397.06
2022-09-06T22:50:10.026Z,100396.84
2022-09-06T22:55:23.080Z,100390.03
2022-09-06T22:57:50.529Z,100383.16
2022-09-06T23:00:18.188Z,100386.94
2022-09-06T23:02:45.677Z,100388.19
2022-09-06T23:05:12.959Z,100386.16
2022-09-06T23:07:40.143Z,100388.44
2022-09-06T23:10:09.110Z,100388.84
2022-09-06T23:12:38.028Z,100381.56
2022-09-06T23:15:06.550Z,100379.59
2022-09-06T23:17:34.198Z,100370.19
2022-09-06T23:20:01.639Z,100370.81
2022-09-06T23:22:28.907Z,100374.34
2022-09-06T23:24:56.578Z,100373.34
2022-09-06T23:27:24.088Z,100370.66
2022-09-06T23:29:53.048Z,100370.03
2022-09-06T23:32:20.571Z,100364.19
2022-09-06T23:34:47.851Z,100365.50
2022-09-06T23:37:15.255Z,100371.91
2022-09-06T23:39:42.979Z,100370.25
2022-09-06T23:42:10.557Z,100373.97
2022-09-06T23:44:37.932Z,100366.28
2022-09-06T23:47:06.963Z,100367.31
2022-09-06T23:49:34.356Z,100361.09
2022-09-06T23:52:02.045Z,100361.47
2022-09-06T23:54:29.947Z,100359.41
2022-09-06T23:56:57.377Z,100367.13
2022-09-06T23:59:24.651Z,100362.69
